• Join FlightAware (Why Join?)
  • Login
  • US Flag 
02:45AM EST


 

Airport Tracker/Info


-or-


 

Live Flight TrackerFlight Track Log ✈ ATN510 ✈ 02-May-2013 ✈ KBWI - BGTL / THU

Flight Track Log - Related Links

Times and Time Zones

All times are in EDT time to prevent confusion due to time zone crossing. See the ATN510 flight status page for this flight to view local times or setup timezone preferences in your user account.

Time Position Orientation Groundspeed Altitude Reporting Facility
EDT Latitude Longitude Course Direction KTS MPH feet Rate Location/Type
02:47AM 39.3061 -75.1194 32° Northeast 413 475 22,700  Level Washington Center
02:48AM 39.3997 -75.0436 32° Northeast 400 460 23,700 900 Climbing Washington Center
02:49AM 39.4931 -74.9678 32° Northeast 389 448 24,500 960 Climbing Washington Center
02:50AM 39.5989 -74.8833 32° Northeast 394 453 25,700 960 Climbing Washington Center
02:51AM 39.6942 -74.8042 33° Northeast 409 471 26,500 720 Climbing Washington Center
02:52AM 39.8022 -74.7517 20° North 409 471 27,200 600 Climbing Washington Center
02:53AM 39.9103 -74.7069 18° North 409 471 27,800 240 Climbing Washington Center
02:55AM 40.0334 -74.7004 40° Northeast  Level Estimated
03:02AM 40.8809 -74.6546 38° Northeast  Level Estimated
03:03AM 40.8907 -74.4948 85° East  Level FlightAware Approximate
03:04AM 40.9002 -74.3350 85° East  Level FlightAware Approximate
03:05AM 40.9096 -74.1752 86° East  Level FlightAware Approximate
03:06AM 41.0307 -74.1691 40° Northeast  Level Estimated
03:07AM 41.0722 -74.0181 70° East  Level FlightAware Approximate
03:07AM 41.4575 -74.0328 70° East 414 476 31,000  Level Boston Center
03:08AM 41.1135 -73.8669 70° East  Level FlightAware Approximate
03:08AM 41.5708 -73.9828 18° North 419 482 31,000  Level Boston Center
03:09AM 41.1546 -73.7156 70° East  Level FlightAware Approximate
03:09AM 41.6800 -73.9300 20° North 419 482 31,000  Level Boston Center
03:10AM 41.7994 -73.8825 17° North 408 470 31,000  Level Boston Center
03:11AM 41.9125 -73.8294 19° North 408 470 31,000  Level Boston Center
03:12AM 42.0256 -73.7789 18° North 408 470 31,000  Level Boston Center
03:13AM 42.1389 -73.7253 19° North 419 482 31,000  Level Boston Center
03:14AM 42.2417 -73.6683 22° Northeast 437 503 31,000  Level Boston Center
03:15AM 42.3631 -73.6231 15° North 412 474 31,000  Level Boston Center
03:16AM 42.4761 -73.5717 19° North 412 474 31,000  Level Boston Center
03:17AM 42.5681 -73.5283 19° North 418 481 31,000  Level Boston Center
03:18AM 42.6917 -73.4711 19° North 423 487 31,000  Level Boston Center
03:19AM 42.8047 -73.4164 20° North 428 493 31,000  Level Boston Center
03:20AM 42.9011 -73.3669 21° North 422 486 31,000  Level Boston Center
03:21AM 43.0306 -73.3092 18° North 427 491 31,000  Level Boston Center
03:22AM 43.1414 -73.2567 19° North 427 491 31,000  Level Boston Center
03:23AM 43.2503 -73.2039 19° North 427 491 31,000  Level Boston Center
03:24AM 43.3631 -73.1511 19° North 427 491 31,000  Level Boston Center
03:25AM 43.4781 -73.0925 20° North 410 472 31,000  Level Boston Center
03:26AM 43.5908 -73.0364 20° North 410 472 31,000  Level Boston Center
03:27AM 43.6869 -72.9883 20° North 410 472 31,000  Level Boston Center
03:28AM 43.7956 -72.9347 20° North 416 479 31,000  Level Boston Center
03:29AM 43.9064 -72.8839 18° North 416 479 31,000  Level Boston Center
03:30AM 44.0147 -72.8269 21° North 416 479 31,000  Level Boston Center
03:31AM 44.1381 -72.7700 18° North 416 479 31,000  Level Boston Center
03:32AM 44.2486 -72.7153 20° North 416 479 31,000  Level Boston Center
03:33AM 44.3569 -72.6608 20° North 411 473 31,000  Level Boston Center
03:34AM 44.4675 -72.6058 20° North 411 473 31,000  Level Boston Center
03:35AM 44.5822 -72.5481 20° North 416 479 31,000  Level Boston Center
03:36AM 44.6906 -72.4956 19° North 416 479 31,000  Level Boston Center
03:37AM 44.7906 -72.4431 20° North 421 484 31,000  Level Boston Center
03:38AM 44.9031 -72.3903 18° North 421 484 31,000  Level Boston Center
03:39AM 45.0153 -72.3314 20° North 421 484 31,000  Level Boston Center
03:40AM 45.1258 -72.2753 20° North 427 491 31,000  Level Boston Center
03:41AM 45.1833 -72.2167 36° Northeast 420 483 31,000  Level Montreal Center
03:42AM 45.3000 -72.1500 22° Northeast 420 483 31,000  Level Montreal Center
03:43AM 45.4000 -72.1000 19° North 420 483 31,000  Level Montreal Center
03:44AM 45.5167 -72.0500 17° North 420 483 31,000  Level Montreal Center
03:45AM 45.6333 -71.9833 22° Northeast 420 483 31,000  Level Montreal Center
03:46AM 45.7500 -71.9333 17° North 420 483 31,000  Level Montreal Center
03:47AM 45.8500 -71.8833 19° North 420 483 31,000  Level Montreal Center
03:48AM 45.9833 -71.8167 19° North 420 483 31,000  Level Montreal Center
03:49AM 46.0833 -71.7667 19° North 420 483 31,000  Level Montreal Center
03:50AM 46.2000 -71.7000 22° Northeast 420 483 31,000  Level Montreal Center
03:51AM 46.3167 -71.6500 16° North 420 483 31,000  Level Montreal Center
03:52AM 46.4167 -71.5833 25° Northeast 420 483 31,000  Level Montreal Center
03:53AM 46.5167 -71.5000 30° Northeast 420 483 31,000  Level Montreal Center
03:54AM 46.6333 -71.4500 16° North 420 483 31,000  Level Montreal Center
03:55AM 46.7333 -71.3833 25° Northeast 430 495 31,000  Level Montreal Center
03:56AM 46.8500 -71.3333 16° North 430 495 31,000  Level Montreal Center
03:57AM 46.9667 -71.2667 21° North 420 483 31,000  Level Montreal Center
03:58AM 47.0833 -71.2167 16° North 420 483 31,000  Level Montreal Center
03:59AM 47.2000 -71.1500 21° North 430 495 31,000  Level Montreal Center
04:00AM 47.3000 -71.0833 24° Northeast 430 495 31,000  Level Montreal Center
04:01AM 47.4333 -71.0333 14° North 430 495 31,000  Level Montreal Center
04:02AM 47.5167 -70.9667 28° Northeast 430 495 31,000  Level Montreal Center
04:03AM 47.6333 -70.9000 21° North 430 495 31,000  Level Montreal Center
04:04AM 47.7500 -70.8500 16° North 430 495 31,000  Level Montreal Center
04:05AM 47.8667 -70.7833 21° North 430 495 31,000  Level Montreal Center
04:06AM 47.9833 -70.7000 26° Northeast 430 495 31,000  Level Montreal Center
04:07AM 48.0833 -70.6333 24° Northeast 430 495 31,000  Level Montreal Center
04:08AM 48.2167 -70.5667 18° North 430 495 31,000  Level Montreal Center
04:09AM 48.3167 -70.5000 24° Northeast 430 495 31,000  Level Montreal Center
04:10AM 48.4167 -70.4500 18° North 430 495 31,000  Level Montreal Center
04:11AM 48.5333 -70.3833 21° North 430 495 31,000  Level Montreal Center
04:12AM 48.6500 -70.3167 21° North 430 495 31,000  Level Montreal Center
04:13AM 48.7500 -70.2500 24° Northeast 430 495 31,000  Level Montreal Center
04:14AM 48.8833 -70.1833 18° North 430 495 31,000  Level Montreal Center
04:15AM 48.9833 -70.1167 24° Northeast 430 495 31,000  Level Montreal Center
04:16AM 49.1000 -70.0500 21° North 430 495 31,000  Level Montreal Center
04:17AM 49.2167 -69.9833 20° North 430 495 31,000  Level Montreal Center
04:18AM 49.3167 -69.9000 29° Northeast 430 495 31,000  Level Montreal Center
04:19AM 49.4167 -69.8333 23° Northeast 430 495 31,000  Level Montreal Center
04:20AM 49.5500 -69.7667 18° North 430 495 31,000  Level Montreal Center
04:21AM 49.6500 -69.7000 23° Northeast 430 495 31,000  Level Montreal Center
04:22AM 49.7667 -69.6333 20° North 430 495 31,000  Level Montreal Center
04:23AM 49.8833 -69.5667 20° North 430 495 31,000  Level Montreal Center
04:24AM 49.9833 -69.5000 23° Northeast 430 495 31,000  Level Montreal Center
04:25AM 50.1000 -69.4333 20° North 430 495 31,000  Level Montreal Center
04:26AM 50.2167 -69.3667 20° North 430 495 31,000  Level Montreal Center
04:27AM 50.3333 -69.2833 25° Northeast 430 495 31,000  Level Montreal Center
04:28AM 50.4333 -69.2167 23° Northeast 430 495 31,000  Level Montreal Center
04:29AM 50.5500 -69.1500 20° North 440 506 31,000  Level Montreal Center
04:30AM 50.6500 -69.0833 23° Northeast 430 495 31,000  Level Montreal Center
04:31AM 50.7667 -68.9833 28° Northeast 440 506 31,000  Level Montreal Center
04:32AM 50.8833 -68.9167 20° North 440 506 31,000  Level Montreal Center
04:33AM 51.0000 -68.8500 20° North 440 506 31,000  Level Montreal Center
04:34AM 51.1167 -68.7667 24° Northeast 430 495 31,000  Level Montreal Center
04:35AM 51.2333 -68.7000 20° North 440 506 31,000  Level Montreal Center
04:36AM 51.3333 -68.6333 23° Northeast 440 506 31,000  Level Montreal Center
04:37AM 51.4500 -68.5500 24° Northeast 440 506 31,000  Level Montreal Center
04:38AM 51.5667 -68.4833 20° North 440 506 31,000  Level Montreal Center
04:39AM 51.6833 -68.4167 20° North 440 506 31,000  Level Montreal Center
04:40AM 51.8000 -68.3333 24° Northeast 440 506 31,000  Level Montreal Center
04:41AM 51.9000 -68.2333 32° Northeast 440 506 31,000  Level Montreal Center
04:42AM 52.0167 -68.1500 24° Northeast 440 506 31,000  Level Montreal Center
04:43AM 52.1500 -68.0833 17° North 450 518 31,100 360 Climbing Montreal Center
04:44AM 52.2667 -68.0000 24° Northeast 440 506 31,800 720 Climbing Montreal Center
04:45AM 52.3667 -67.9333 22° Northeast 440 506 32,600 600 Climbing Montreal Center
04:46AM 52.4833 -67.8500 24° Northeast 440 506 33,000 180 Climbing Montreal Center
04:47AM 52.6000 -67.7667 23° Northeast 430 495 33,000  Level Montreal Center
04:48AM 52.7167 -67.7000 19° North 440 506 33,000  Level Montreal Center
04:49AM 52.8000 -67.6000 36° Northeast 440 506 33,000  Level Montreal Center
04:50AM 52.9333 -67.5167 21° North 440 506 33,000  Level Montreal Center
04:51AM 53.0500 -67.4333 23° Northeast 440 506 33,000  Level Montreal Center
04:52AM 53.1667 -67.3500 23° Northeast 440 506 33,000  Level Montreal Center
04:53AM 53.2500 -67.3167 13° North 440 506 33,000  Level Gander Center
04:54AM 53.3667 -67.2500 19° North 440 506 33,000  Level Gander Center
04:55AM 53.4833 -67.1667 23° Northeast 440 506 33,000  Level Gander Center
04:56AM 53.6000 -67.0833 23° Northeast 440 506 33,000  Level Gander Center
04:57AM 53.7167 -66.9833 27° Northeast 450 518 33,000  Level Gander Center
04:58AM 53.8167 -66.9167 21° North 450 518 33,000  Level Gander Center
04:59AM 53.9333 -66.8167 27° Northeast 450 518 33,000  Level Gander Center
05:00AM 54.0500 -66.7500 19° North 440 506 33,000  Level Gander Center
05:01AM 54.1667 -66.6500 27° Northeast 440 506 33,000  Level Gander Center
05:02AM 54.2667 -66.5833 21° North 440 506 33,000  Level Gander Center
05:03AM 54.3833 -66.4833 27° Northeast 440 506 33,000  Level Gander Center
05:04AM 54.5000 -66.4000 23° Northeast 440 506 33,000  Level Gander Center
05:05AM 54.6167 -66.3000 26° Northeast 440 506 33,000  Level Gander Center
05:06AM 54.7167 -66.2333 21° North 450 518 33,000  Level Gander Center
05:07AM 54.8333 -66.1333 26° Northeast 450 518 33,000  Level Gander Center
05:08AM 54.9667 -66.0333 23° Northeast 450 518 33,000  Level Gander Center
05:09AM 55.0667 -65.9500 26° Northeast 450 518 33,000  Level Gander Center
05:10AM 55.1833 -65.8500 26° Northeast 460 529 33,000  Level Gander Center
05:11AM 55.2833 -65.7500 30° Northeast 450 518 33,000  Level Gander Center
05:12AM 55.4000 -65.6667 22° Northeast 460 529 33,000  Level Gander Center
05:13AM 55.5333 -65.5667 23° Northeast 450 518 33,000  Level Gander Center
05:14AM 55.6333 -65.4833 25° Northeast 460 529 33,000  Level Gander Center
05:15AM 55.7500 -65.3833 26° Northeast 460 529 33,000  Level Gander Center
05:16AM 55.8667 -65.2667 29° Northeast 460 529 33,000  Level Gander Center
05:17AM 55.9833 -65.2000 18° North 460 529 33,000  Level Gander Center
05:18AM 56.1000 -65.0833 29° Northeast 460 529 33,000  Level Gander Center
05:19AM 56.2167 -64.9833 25° Northeast 470 541 33,000  Level Gander Center
05:20AM 56.3333 -64.8667 29° Northeast 460 529 33,000  Level Gander Center
05:21AM 56.4500 -64.7833 22° Northeast 470 541 33,000  Level Gander Center
05:22AM 56.5667 -64.6833 25° Northeast 470 541 33,000  Level Gander Center
05:23AM 56.7000 -64.5667 26° Northeast 470 541 33,000  Level Gander Center
05:24AM 56.8167 -64.4500 29° Northeast 470 541 33,000  Level Gander Center
05:25AM 56.9167 -64.3667 24° Northeast 470 541 33,000  Level Gander Center
05:26AM 57.0333 -64.2500 29° Northeast 470 541 33,000  Level Gander Center
05:27AM 57.1500 -64.1500 25° Northeast 480 552 33,000  Level Gander Center
05:28AM 57.2667 -64.0667 21° North 480 552 33,000  Level Gander Center
05:29AM 57.4000 -63.9500 25° Northeast 470 541 33,000  Level Gander Center
05:30AM 57.5167 -63.8333 28° Northeast 480 552 33,000  Level Gander Center
05:31AM 57.6333 -63.7167 28° Northeast 480 552 33,000  Level Gander Center
05:32AM 57.7500 -63.6000 28° Northeast 480 552 33,000  Level Gander Center
05:33AM 57.8667 -63.4833 28° Northeast 490 564 33,000  Level Gander Center
05:34AM 58.0000 -63.3833 22° Northeast 480 552 33,000  Level Gander Center
05:35AM 58.1167 -63.2667 28° Northeast 480 552 33,000  Level Gander Center
05:36AM 58.2167 -63.1500 32° Northeast 480 552 33,000  Level Gander Center
05:37AM 58.3667 -63.0333 22° Northeast 490 564 33,000  Level Gander Center
05:38AM 58.4833 -62.9000 31° Northeast 480 552 33,000  Level Gander Center
05:39AM 58.6000 -62.7833 28° Northeast 480 552 33,000  Level Gander Center
05:40AM 58.7167 -62.7000 20° North 480 552 33,000  Level Gander Center
05:41AM 58.8333 -62.5667 31° Northeast 490 564 33,000  Level Gander Center
05:42AM 58.9500 -62.4500 27° Northeast 490 564 33,000  Level Gander Center
05:43AM 59.0833 -62.3167 27° Northeast 500 575 33,000  Level Gander Center
05:44AM 59.2000 -62.2000 27° Northeast 500 575 33,000  Level Gander Center
05:45AM 59.3167 -62.0667 30° Northeast 500 575 33,000  Level Gander Center
05:46AM 59.4333 -61.9333 30° Northeast 500 575 33,000  Level Gander Center
05:47AM 59.5667 -61.8000 27° Northeast 500 575 33,000  Level Gander Center
05:48AM 59.6833 -61.6833 27° Northeast 510 587 33,000  Level Gander Center
05:49AM 59.8167 -61.5833 21° North 490 564 33,000  Level Gander Center
05:50AM 59.9333 -61.5167 16° North 480 552 33,000  Level Gander Center
05:51AM 60.0500 -61.4500 16° North 480 552 33,000  Level Gander Center
05:52AM 60.1833 -61.4167 North 480 552 33,000  Level Gander Center
05:53AM 60.3167 -61.3500 14° North 480 552 33,000  Level Gander Center
05:54AM 60.4500 -61.2833 14° North 480 552 33,000 360 Level Gander Center
05:55AM 60.5833 -61.2500 North 480 552 33,800 660 Climbing Gander Center
05:56AM 60.7000 -61.1833 16° North 480 552 34,400 600 Climbing Gander Center
05:57AM 60.8333 -61.1167 14° North 480 552 35,000 240 Climbing Gander Center
05:58AM 61.0000 -61.0500 11° North 480 552 35,000  Level Gander Center
05:59AM 61.1167 -60.9667 19° North 480 552 35,000  Level Gander Center
06:00AM 61.2500 -60.9333 North 480 552 35,000  Level Gander Center
06:01AM 61.4000 -60.8667 12° North 480 552 35,000  Level Gander Center
06:02AM 61.5333 -60.8000 13° North 480 552 35,000  Level Gander Center
06:03AM 61.6667 -60.7500 10° North 490 564 35,000  Level Gander Center
06:04AM 61.8000 -60.6833 13° North 490 564 35,000  Level Gander Center
06:05AM 61.9333 -60.6167 13° North 490 564 35,000  Level Gander Center
06:06AM 62.0500 -60.5667 11° North 490 564 35,000  Level Gander Center
06:07AM 62.1833 -60.5000 13° North 490 564 35,000  Level Gander Center
06:08AM 62.3167 -60.4333 13° North 500 575 35,000  Level Gander Center
06:09AM 62.4500 -60.3500 16° North 500 575 35,000  Level Gander Center
06:10AM 62.5667 -60.3167 North 500 575 35,000  Level Gander Center
06:11AM 62.7000 -60.2333 16° North 500 575 35,000  Level Gander Center
06:12AM 62.8333 -60.1500 16° North 510 587 35,000  Level Gander Center
06:13AM 62.9833 -60.1167 North 510 587 35,000  Level Gander Center
06:14AM 63.1167 -60.0333 16° North 510 587 35,000  Level Gander Center
06:15AM 63.2667 -59.9500 14° North 520 598 35,000  Level Gander Center
06:16AM 63.4000 -59.8833 13° North 520 598 35,000  Level Gander Center
06:17AM 63.5500 -59.8000 14° North 520 598 35,000  Level Gander Center
06:18AM 63.6667 -59.7167 18° North 530 610 35,000  Level Gander Center
06:19AM 63.8167 -59.6667 North 530 610 35,000  Level Gander Center
06:20AM 63.9667 -59.5833 14° North 530 610 35,000  Level Gander Center
06:21AM 64.1167 -59.5000 14° North 530 610 35,000  Level Gander Center
06:22AM 64.2500 -59.4167 15° North 540 621 35,000  Level Gander Center
06:23AM 64.4000 -59.3333 13° North 540 621 35,000  Level Gander Center
06:24AM 64.5500 -59.2500 13° North 540 621 35,000  Level Gander Center
06:25AM 64.6833 -59.1667 15° North 550 633 35,000  Level Gander Center
06:26AM 64.8333 -59.0667 16° North 550 633 35,000  Level Gander Center
06:27AM 64.9833 -58.9833 13° North 550 633 35,000  Level Gander Center
06:28AM 65.1333 -58.9333 North 560 644 35,000  Level Gander Center
06:29AM 65.2833 -58.8833 North 550 633 35,000  Level Gander Center
06:30AM 65.4333 -58.8333 North 550 633 35,000  Level Gander Center
06:31AM 65.5833 -58.7667 10° North 540 621 35,000  Level Gander Center
06:32AM 65.7167 -58.7167 North 540 621 35,000  Level Gander Center
06:33AM 65.8500 -58.6667 North 540 621 35,000  Level Gander Center
06:34AM 66.0000 -58.6167 North 540 621 35,000  Level Gander Center
06:35AM 66.1500 -58.6000 North 540 621 35,000  Level Gander Center
06:36AM 66.3000 -58.5333 10° North 540 621 35,000  Level Gander Center
06:37AM 65.0000 -59.0000 North 535 616 35,000  Level ETMS Enhanced Traffic Management System
06:37AM 66.4500 -58.4833 North 540 621 35,000  Level Gander Center
06:38AM 66.5833 -58.4333 North 550 633 35,000  Level Gander Center
06:39AM 66.7333 -58.3667 10° North 540 621 35,000  Level Gander Center
06:40AM 66.8833 -58.3167 North 540 621 35,000  Level Gander Center
06:41AM 67.0333 -58.2500 10° North 540 621 35,000  Level Gander Center
06:42AM 67.1833 -58.2000 North 540 621 35,000  Level Gander Center
06:43AM 67.3167 -58.1333 11° North 540 621 35,000  Level Gander Center
06:44AM 67.4667 -58.0667 10° North 540 621 35,000  Level Gander Center
06:45AM 67.6000 -58.0167 North 530 610 35,000  Level Gander Center
06:46AM 67.7500 -57.9500 10° North 530 610 35,000  Level Gander Center
06:47AM 67.9000 -57.9333 North 530 610 35,000  Level Gander Center
06:48AM 68.0333 -57.8667 11° North 530 610 35,000  Level Gander Center
06:49AM 68.2000 -57.8000 North 520 598 35,000  Level Gander Center
06:50AM 68.3333 -57.7333 10° North 520 598 35,000  Level Gander Center
06:51AM 68.4833 -57.6667 North 520 598 35,000  Level Gander Center
06:52AM 68.6333 -57.6000 North 530 610 35,000  Level Gander Center
06:53AM 68.7500 -57.5333 12° North 520 598 35,000  Level Gander Center
06:54AM 68.9000 -57.4667 North 530 610 35,000  Level Gander Center
06:55AM 69.0667 -57.5333 352° North 540 621 35,000  Level Gander Center
06:56AM 69.2000 -57.3333 28° Northeast 530 610 35,000  Level Gander Center
06:57AM 69.3167 -57.2667 11° North 530 610 35,000  Level Gander Center
06:58AM 69.4667 -57.2333 North 530 610 35,000  Level Gander Center
06:59AM 69.6167 -57.1667 North 530 610 35,000  Level Gander Center
07:00AM 69.7667 -57.0833 11° North 540 621 35,000  Level Gander Center
07:01AM 69.9000 -56.9667 17° North 530 610 35,000  Level Gander Center
07:02AM 70.0500 -56.9333 North 540 621 35,000  Level Gander Center
07:03AM 70.2000 -56.8667 North 540 621 35,000  Level Gander Center
07:05AM 70.4500 -56.7000 13° North 540 621 35,000  Level Gander Center
07:06AM 70.6167 -56.8167 347° North 540 621 35,000  Level Gander Center
07:08AM 70.7979 -57.0621 336° Northwest  Level Estimated
07:15AM 71.5948 -58.2029 336° Northwest  Level Estimated
07:16AM 71.7080 -58.3737 335° Northwest  Level Estimated
07:17AM 71.8211 -58.5465 335° Northwest  Level Estimated
07:18AM 71.9341 -58.7215 334° Northwest  Level Estimated
07:19AM 72.0469 -58.8985 334° Northwest  Level Estimated
07:20AM 72.1595 -59.0777 334° Northwest  Level Estimated
07:21AM 72.2720 -59.2591 334° Northwest  Level Estimated
07:22AM 72.3843 -59.4428 334° Northwest  Level Estimated
07:23AM 72.4964 -59.6287 334° Northwest  Level Estimated
07:24AM 72.6083 -59.8169 333° Northwest  Level Estimated
07:25AM 72.7201 -60.0075 333° Northwest  Level Estimated
07:26AM 72.8317 -60.2006 333° Northwest  Level Estimated
07:27AM 72.9431 -60.3960 333° Northwest  Level Estimated
07:28AM 73.0543 -60.5940 333° Northwest  Level Estimated
07:29AM 73.1653 -60.7944 332° Northwest  Level Estimated
07:30AM 73.2762 -60.9975 332° Northwest  Level Estimated
07:31AM 73.3868 -61.2032 332° Northwest  Level Estimated
07:32AM 73.4972 -61.4116 332° Northwest  Level Estimated
07:33AM 73.6074 -61.6227 332° Northwest  Level Estimated
07:34AM 73.7174 -61.8366 331° Northwest  Level Estimated
07:35AM 73.8272 -62.0533 331° Northwest  Level Estimated
07:36AM 73.9367 -62.2728 331° Northwest  Level Estimated
07:37AM 74.0461 -62.4953 331° Northwest  Level Estimated
07:38AM 74.1552 -62.7209 331° Northwest  Level Estimated
07:39AM 74.2640 -62.9494 330° Northwest  Level Estimated
07:40AM 74.3727 -63.1810 330° Northwest  Level Estimated
07:41AM 74.4810 -63.4158 330° Northwest  Level Estimated
07:42AM 74.5891 -63.6539 330° Northwest  Level Estimated
07:43AM 74.6970 -63.8951 329° Northwest  Level Estimated
07:44AM 74.8046 -64.1398 329° Northwest  Level Estimated
07:45AM 74.9119 -64.3878 329° Northwest  Level Estimated
07:46AM 75.0190 -64.6393 329° Northwest  Level Estimated
07:47AM 75.1258 -64.8944 329° Northwest  Level Estimated
07:48AM 75.2323 -65.1530 328° Northwest  Level Estimated
07:49AM 75.3385 -65.4153 328° Northwest  Level Estimated
07:50AM 75.4444 -65.6814 328° Northwest  Level Estimated
07:51AM 75.5500 -65.9512 328° Northwest  Level Estimated
07:52AM 75.6553 -66.2249 327° Northwest  Level Estimated
07:53AM 75.7603 -66.5026 327° Northwest  Level Estimated
07:54AM 75.8649 -66.7843 327° Northwest  Level Estimated
07:55AM 75.9692 -67.0702 326° Northwest  Level Estimated
07:56AM 76.0732 -67.3602 326° Northwest  Level Estimated
07:57AM 76.1768 -67.6545 326° Northwest  Level Estimated
07:58AM 76.2801 -67.9531 326° Northwest  Level Estimated
07:59AM 76.3830 -68.2562 325° Northwest  Level Estimated